Terminal Aerodrome Forecast
Issued by NWS

Home | Current Version | Previous Version | Text Only | Print | Product List | Glossary On
Versions: 1 2 3 4 5 6 7 8 9 10 11 12 13 14 15
559
FTUS43 KFGF 191742 AAA
TAFBJI
TAF AMD
KBJI 191742Z 1918/2018 13015G20KT P6SM BKN005
     FM192300 13018G27KT P6SM BKN015
     FM200300 14015G23KT P6SM VCTS OVC015CB
     FM200700 15014KT 6SM SHRA VCTS OVC020CB
     FM200900 20011KT P6SM OVC015
     FM201300 24009KT P6SM BKN025
     FM201500 26010KT P6SM SCT080=

USA.gov is the U.S. government's official web portal to all federal, state and local government web resources and services.